createdAt,value
2019-03-23T00:01:39.076Z,27.10
2019-03-23T00:06:44.517Z,26.53
2019-03-23T00:11:49.851Z,27.53
2019-03-23T00:16:55.052Z,25.93
2019-03-23T00:22:00.265Z,27.87
2019-03-23T00:27:05.561Z,26.27
2019-03-23T00:32:10.805Z,29.10
2019-03-23T00:37:16.017Z,27.93
2019-03-23T00:42:21.553Z,28.27
2019-03-23T00:47:27.264Z,27.80
2019-03-23T00:52:32.515Z,27.77
2019-03-23T00:57:37.855Z,25.53
2019-03-23T01:02:43.182Z,28.77
2019-03-23T01:07:48.564Z,27.40
2019-03-23T01:12:53.993Z,25.17
2019-03-23T01:17:59.358Z,27.90
2019-03-23T01:23:05.708Z,28.23
2019-03-23T01:28:11.028Z,28.60
2019-03-23T01:33:16.319Z,29.10
2019-03-23T01:38:21.665Z,30.75
2019-03-23T01:43:26.900Z,28.70
2019-03-23T01:48:32.163Z,29.43
2019-03-23T01:53:37.356Z,28.70
2019-03-23T01:58:42.550Z,29.00
2019-03-23T02:03:47.759Z,27.87
2019-03-23T02:08:52.981Z,27.93
2019-03-23T02:13:58.232Z,26.87
2019-03-23T02:19:05.293Z,27.65
2019-03-23T02:24:11.530Z,28.13
2019-03-23T02:29:16.735Z,26.27
2019-03-23T02:34:22.903Z,27.17
2019-03-23T02:39:28.188Z,26.87
2019-03-23T02:44:33.482Z,26.17
2019-03-23T02:49:38.697Z,26.67
2019-03-23T02:54:43.953Z,27.03
2019-03-23T02:59:49.180Z,25.70
2019-03-23T03:04:54.418Z,26.67
2019-03-23T03:10:00.825Z,25.43
2019-03-23T03:15:07.124Z,23.00
2019-03-23T03:20:13.000Z,22.50
2019-03-23T03:25:18.302Z,21.23
2019-03-23T03:30:23.497Z,21.20
2019-03-23T03:35:28.987Z,21.60
2019-03-23T03:40:34.214Z,22.57
2019-03-23T03:45:39.533Z,22.83
2019-03-23T03:50:44.756Z,22.90
2019-03-23T03:55:49.990Z,20.27
2019-03-23T04:00:55.305Z,22.37
2019-03-23T04:06:00.759Z,22.33
2019-03-23T04:11:05.984Z,23.13
2019-03-23T04:16:11.245Z,21.97
2019-03-23T04:21:16.451Z,22.55
2019-03-23T04:26:21.772Z,21.67
2019-03-23T04:31:26.982Z,21.83
2019-03-23T04:36:32.221Z,22.00
2019-03-23T04:41:37.550Z,21.83
2019-03-23T04:46:43.994Z,21.70
2019-03-23T04:51:50.624Z,21.70
2019-03-23T04:56:55.852Z,21.20
2019-03-23T05:02:01.343Z,22.00
2019-03-23T05:07:06.544Z,21.10
2019-03-23T05:12:11.834Z,21.10
2019-03-23T05:17:17.098Z,20.87
2019-03-23T05:22:22.331Z,20.60
2019-03-23T05:27:27.677Z,20.33
2019-03-23T05:32:32.888Z,21.20
2019-03-23T05:37:38.155Z,21.13
2019-03-23T05:42:43.387Z,22.23
2019-03-23T05:47:48.655Z,21.53
2019-03-23T05:52:54.028Z,20.93
2019-03-23T05:57:59.459Z,21.10
2019-03-23T06:03:05.113Z,21.30
2019-03-23T06:08:10.673Z,21.07
2019-03-23T06:13:16.124Z,22.73
2019-03-23T06:18:21.631Z,26.83
2019-03-23T06:23:26.918Z,25.67
2019-03-23T06:28:32.139Z,23.23
2019-03-23T06:33:37.559Z,22.47
2019-03-23T06:38:42.992Z,22.17
2019-03-23T06:43:48.481Z,21.27
2019-03-23T06:48:53.895Z,21.93
2019-03-23T06:53:59.337Z,23.67
2019-03-23T06:59:06.871Z,23.83
2019-03-23T07:04:12.487Z,25.50
2019-03-23T07:09:17.867Z,25.80
2019-03-23T07:14:23.302Z,24.70
2019-03-23T07:19:28.810Z,25.67
2019-03-23T07:24:34.224Z,27.00
2019-03-23T07:29:39.614Z,26.00
2019-03-23T07:34:45.017Z,25.30
2019-03-23T07:39:50.752Z,24.37
2019-03-23T07:44:56.236Z,27.40
2019-03-23T07:50:01.745Z,27.10
2019-03-23T07:55:12.020Z,26.00
2019-03-23T08:00:19.271Z,26.52
2019-03-23T08:05:25.524Z,26.13
2019-03-23T08:10:32.544Z,27.23
2019-03-23T08:15:37.778Z,28.80
2019-03-23T08:20:43.006Z,27.03
2019-03-23T08:25:48.241Z,29.20
2019-03-23T08:30:53.464Z,27.27
2019-03-23T08:35:58.673Z,28.10
2019-03-23T08:41:03.908Z,28.02
2019-03-23T08:46:09.145Z,28.80
2019-03-23T08:51:14.738Z,28.55
2019-03-23T08:56:19.971Z,27.73
2019-03-23T09:01:25.168Z,27.52
2019-03-23T09:06:30.382Z,26.80
2019-03-23T09:11:35.972Z,25.92
2019-03-23T09:16:41.251Z,28.02
2019-03-23T09:21:46.513Z,26.20
2019-03-23T09:26:51.708Z,25.72
2019-03-23T09:31:57.896Z,24.50
2019-03-23T09:37:03.115Z,24.27
2019-03-23T09:42:08.615Z,23.12
2019-03-23T09:47:13.811Z,23.35
2019-03-23T09:52:19.307Z,24.27
2019-03-23T09:57:24.587Z,23.45
2019-03-23T10:02:29.824Z,23.55
2019-03-23T10:07:35.054Z,23.80
2019-03-23T10:12:40.356Z,22.55
2019-03-23T10:17:45.607Z,21.57
2019-03-23T10:22:50.886Z,22.37
2019-03-23T10:27:56.094Z,22.40
2019-03-23T10:33:01.406Z,21.10
2019-03-23T10:38:06.614Z,20.60
2019-03-23T10:43:12.060Z,20.57
2019-03-23T10:48:17.463Z,21.15
2019-03-23T10:53:23.365Z,21.23
2019-03-23T10:58:28.882Z,22.37
2019-03-23T11:03:35.075Z,22.13
2019-03-23T11:08:40.344Z,24.77
2019-03-23T11:13:45.558Z,26.15
2019-03-23T11:18:50.816Z,26.95
2019-03-23T11:23:57.099Z,26.45
2019-03-23T11:29:15.187Z,22.98
2019-03-23T11:34:20.741Z,26.70
2019-03-23T11:39:26.049Z,29.98
2019-03-23T11:44:31.430Z,31.62
2019-03-23T11:49:37.885Z,27.67
2019-03-23T11:54:43.168Z,30.68
2019-03-23T11:59:48.444Z,31.00
2019-03-23T12:04:53.676Z,32.70
2019-03-23T12:09:58.898Z,32.70
2019-03-23T12:15:04.562Z,34.30
2019-03-23T12:20:10.414Z,33.58
2019-03-23T12:25:17.296Z,35.28
2019-03-23T12:30:23.608Z,31.13
2019-03-23T12:35:28.903Z,30.43
2019-03-23T12:40:36.395Z,31.60
2019-03-23T12:45:41.281Z,30.25
2019-03-23T12:50:46.559Z,27.42
2019-03-23T12:55:51.958Z,20.92
2019-03-23T13:00:57.610Z,27.32
2019-03-23T13:06:02.878Z,26.17
2019-03-23T13:11:08.224Z,29.95
2019-03-23T13:16:13.546Z,27.45
2019-03-23T13:21:18.959Z,30.30
2019-03-23T13:26:24.305Z,28.80
2019-03-23T13:31:29.562Z,28.20
2019-03-23T13:36:34.842Z,28.62
2019-03-23T13:41:50.056Z,26.70
2019-03-23T13:46:55.369Z,23.98
2019-03-23T13:52:01.851Z,26.00
2019-03-23T13:57:08.399Z,25.97
2019-03-23T14:02:13.649Z,26.15
2019-03-23T14:07:18.914Z,25.85
2019-03-23T14:12:24.566Z,25.68
2019-03-23T14:17:30.894Z,24.23
2019-03-23T14:22:36.168Z,21.52
2019-03-23T14:27:41.524Z,21.12
2019-03-23T14:32:47.141Z,22.93
2019-03-23T14:37:53.452Z,21.23
2019-03-23T14:42:58.910Z,22.00
2019-03-23T14:48:05.174Z,20.75
2019-03-23T14:53:10.702Z,20.20
2019-03-23T14:58:16.211Z,19.77
2019-03-23T15:03:22.596Z,20.37
2019-03-23T15:08:28.205Z,20.45
2019-03-23T15:13:33.693Z,20.72
2019-03-23T15:18:39.111Z,20.62
2019-03-23T15:23:44.535Z,19.92
2019-03-23T15:28:50.001Z,20.65
2019-03-23T15:33:55.425Z,18.57
2019-03-23T15:39:06.912Z,18.90
2019-03-23T15:44:14.967Z,19.33
2019-03-23T15:49:24.347Z,18.60
2019-03-23T15:54:30.742Z,19.27
2019-03-23T15:59:39.632Z,17.90
2019-03-23T16:04:50.437Z,17.45
2019-03-23T16:09:58.489Z,17.40
2019-03-23T16:15:09.586Z,17.25
2019-03-23T16:20:18.217Z,16.63
2019-03-23T16:25:28.067Z,16.87
2019-03-23T16:30:34.602Z,16.70
2019-03-23T16:35:40.115Z,15.50
2019-03-23T16:40:45.607Z,15.83
2019-03-23T16:45:51.561Z,16.70
2019-03-23T16:50:57.109Z,16.37
2019-03-23T16:56:02.558Z,16.20
2019-03-23T17:01:07.995Z,16.85
2019-03-23T17:06:13.384Z,15.78
2019-03-23T17:11:19.802Z,14.28
2019-03-23T17:16:25.498Z,13.20
2019-03-23T17:21:30.982Z,11.83
2019-03-23T17:26:36.407Z,11.12
2019-03-23T17:31:41.898Z,11.15
2019-03-23T17:36:47.438Z,11.85
2019-03-23T17:41:53.050Z,14.00
2019-03-23T17:46:58.636Z,13.38
2019-03-23T17:52:06.106Z,13.60
2019-03-23T17:57:12.484Z,13.37
2019-03-23T18:02:18.552Z,13.63
2019-03-23T18:07:24.640Z,12.47
2019-03-23T18:12:30.448Z,10.72
2019-03-23T18:17:35.886Z,9.65
2019-03-23T18:22:41.323Z,9.73
2019-03-23T18:27:47.344Z,9.95
2019-03-23T18:32:52.774Z,9.30
2019-03-23T18:37:58.703Z,9.78
2019-03-23T18:43:05.532Z,9.08
2019-03-23T18:48:10.960Z,9.90
2019-03-23T18:53:16.519Z,10.85
2019-03-23T18:58:21.943Z,12.13
2019-03-23T19:03:27.360Z,13.48
2019-03-23T19:08:32.810Z,14.05
2019-03-23T19:13:38.375Z,14.28
2019-03-23T19:18:43.792Z,14.33
2019-03-23T19:23:49.373Z,15.00
2019-03-23T19:28:54.775Z,15.05
2019-03-23T19:34:00.484Z,16.25
2019-03-23T19:39:08.925Z,16.65
2019-03-23T19:44:14.380Z,17.73
2019-03-23T19:49:19.821Z,18.05
2019-03-23T19:54:26.195Z,20.12
2019-03-23T19:59:31.619Z,19.52
2019-03-23T20:04:37.156Z,20.95
2019-03-23T20:09:42.575Z,21.62
2019-03-23T20:14:49.605Z,22.05
2019-03-23T20:19:55.099Z,22.62
2019-03-23T20:25:01.657Z,23.42
2019-03-23T20:30:08.132Z,21.80
2019-03-23T20:35:14.054Z,21.40
2019-03-23T20:40:19.563Z,20.90
2019-03-23T20:45:29.479Z,19.90
2019-03-23T20:50:35.679Z,20.15
2019-03-23T20:55:41.141Z,17.80
2019-03-23T21:00:46.559Z,17.63
2019-03-23T21:05:52.002Z,18.15
2019-03-23T21:10:57.496Z,17.92
2019-03-23T21:16:02.933Z,18.42
2019-03-23T21:21:08.519Z,17.07
2019-03-23T21:26:14.251Z,18.05
2019-03-23T21:31:19.761Z,17.77
2019-03-23T21:36:25.259Z,19.12
2019-03-23T21:41:30.813Z,20.23
2019-03-23T21:46:36.353Z,19.87
2019-03-23T21:51:41.787Z,17.70
2019-03-23T21:56:47.632Z,16.90
2019-03-23T22:01:53.170Z,16.48
2019-03-23T22:07:01.226Z,16.12
2019-03-23T22:12:06.683Z,15.65
2019-03-23T22:17:12.150Z,16.60
2019-03-23T22:22:17.702Z,15.32
2019-03-23T22:27:23.212Z,16.12
2019-03-23T22:32:28.712Z,15.48
2019-03-23T22:37:34.163Z,18.07
2019-03-23T22:42:39.671Z,18.23
2019-03-23T22:47:45.468Z,19.10
2019-03-23T22:52:50.946Z,19.62
2019-03-23T22:57:56.618Z,19.70
2019-03-23T23:03:02.595Z,19.92
2019-03-23T23:08:08.182Z,20.12
2019-03-23T23:13:13.650Z,20.30
2019-03-23T23:18:19.191Z,21.48
2019-03-23T23:23:24.673Z,21.87
2019-03-23T23:28:30.612Z,22.23
2019-03-23T23:33:36.047Z,21.68
2019-03-23T23:38:41.563Z,21.23
2019-03-23T23:43:46.947Z,21.97
2019-03-23T23:48:52.777Z,21.53
2019-03-23T23:53:58.083Z,22.43
2019-03-23T23:59:03.601Z,20.30
